Terminal Aerodrome Forecast
Issued by NWS

Current Version | Previous Version | Text Only | Print | Product List | Glossary Off
Versions: 1 2 3 4 5 6 7 8 9 10 11 12 13 14 15 16 17 18

995
FTUS41 KPBZ 241615 AAB
TAFMGW
TAF AMD
KMGW 241615Z 2416/2512 35004KT P6SM BKN008
     FM241800 01004KT P6SM BKN012
     FM242000 35005KT P6SM SCT025=

USA.gov is the U.S. government's official web portal to all federal, state and local government web resources and services.